createdAt,value
2023-02-08T00:01:44.237Z,16.17
2023-02-08T00:04:08.902Z,15.73
2023-02-08T00:06:34.872Z,14.90
2023-02-08T00:08:59.709Z,16.80
2023-02-08T00:11:24.050Z,13.90
2023-02-08T00:13:48.492Z,14.68
2023-02-08T00:16:14.669Z,14.07
2023-02-08T00:18:39.100Z,14.40
2023-02-08T00:21:08.297Z,15.98
2023-02-08T00:23:34.133Z,16.77
2023-02-08T00:25:58.488Z,17.15
2023-02-08T00:28:22.950Z,16.08
2023-02-08T00:30:47.726Z,16.67
2023-02-08T00:33:12.420Z,14.07
2023-02-08T00:35:37.345Z,16.35
2023-02-08T00:38:02.094Z,16.05
2023-02-08T00:40:28.524Z,16.42
2023-02-08T00:42:55.151Z,14.05
2023-02-08T00:45:20.196Z,16.08
2023-02-08T00:47:45.050Z,12.15
2023-02-08T00:50:11.288Z,11.90
2023-02-08T00:52:35.703Z,10.98
2023-02-08T00:55:00.325Z,14.18
2023-02-08T00:57:26.665Z,14.30
2023-02-08T00:59:51.075Z,11.73
2023-02-08T01:02:16.354Z,12.68
2023-02-08T01:04:41.213Z,14.38
2023-02-08T01:07:07.070Z,12.07
2023-02-08T01:09:31.789Z,14.25
2023-02-08T01:11:56.347Z,12.50
2023-02-08T01:14:22.811Z,13.45
2023-02-08T01:16:47.466Z,14.48
2023-02-08T01:19:12.334Z,10.32
2023-02-08T01:21:39.078Z,13.85
2023-02-08T01:24:04.965Z,12.43
2023-02-08T01:26:30.407Z,13.85
2023-02-08T01:28:56.345Z,13.60
2023-02-08T01:31:24.462Z,13.40
2023-02-08T01:33:50.447Z,15.32
2023-02-08T01:36:16.688Z,15.07
2023-02-08T01:38:41.730Z,12.40
2023-02-08T01:41:07.439Z,14.48
2023-02-08T01:43:34.254Z,14.45
2023-02-08T01:45:59.327Z,15.32
2023-02-08T01:48:30.388Z,14.77
2023-02-08T01:51:00.300Z,15.45
2023-02-08T01:53:28.476Z,11.15
2023-02-08T01:55:56.159Z,12.98
2023-02-08T01:58:21.438Z,13.68
2023-02-08T02:00:46.285Z,9.43
2023-02-08T02:03:10.914Z,13.95
2023-02-08T02:05:44.760Z,14.35
2023-02-08T02:08:09.523Z,14.25
2023-02-08T02:10:35.733Z,12.30
2023-02-08T02:13:07.262Z,13.57
2023-02-08T02:15:31.853Z,12.68
2023-02-08T02:17:56.956Z,14.07
2023-02-08T02:20:29.059Z,12.63
2023-02-08T02:23:32.249Z,12.40
2023-02-08T02:26:34.594Z,10.18
2023-02-08T02:29:41.249Z,12.52
2023-02-08T02:32:22.000Z,12.07
2023-02-08T02:34:52.513Z,11.40
2023-02-08T02:37:31.447Z,11.32
2023-02-08T02:40:04.989Z,10.60
2023-02-08T02:42:54.892Z,11.32
2023-02-08T02:48:01.110Z,10.45
2023-02-08T02:50:32.256Z,13.07
2023-02-08T02:53:02.225Z,11.80
2023-02-08T02:55:29.363Z,11.73
2023-02-08T02:57:57.865Z,13.45
2023-02-08T03:00:26.213Z,11.07
2023-02-08T03:02:51.396Z,12.70
2023-02-08T03:05:17.583Z,10.43
2023-02-08T03:08:05.118Z,12.43
2023-02-08T03:10:52.838Z,12.98
2023-02-08T03:13:26.923Z,13.27
2023-02-08T03:16:02.328Z,12.73
2023-02-08T03:18:36.504Z,12.48
2023-02-08T03:21:10.469Z,11.32
2023-02-08T03:23:42.940Z,9.48
2023-02-08T03:26:12.464Z,12.02
2023-02-08T03:28:42.144Z,9.23
2023-02-08T03:31:13.608Z,12.73
2023-02-08T03:33:44.479Z,11.88
2023-02-08T03:36:21.119Z,12.02
2023-02-08T03:38:49.276Z,13.95
2023-02-08T03:41:17.865Z,13.65
2023-02-08T03:43:47.066Z,11.13
2023-02-08T03:46:17.055Z,12.52
2023-02-08T03:48:46.778Z,13.23
2023-02-08T03:51:13.412Z,11.57
2023-02-08T03:53:40.838Z,13.45
2023-02-08T03:56:10.097Z,10.88
2023-02-08T03:58:39.922Z,13.02
2023-02-08T04:01:09.117Z,11.20
2023-02-08T04:03:34.708Z,11.07
2023-02-08T04:05:59.282Z,11.40
2023-02-08T04:08:25.040Z,11.20
2023-02-08T04:10:49.995Z,10.73
2023-02-08T04:13:14.322Z,11.80
2023-02-08T04:15:38.878Z,9.93
2023-02-08T04:18:03.267Z,12.23
2023-02-08T04:20:27.846Z,9.18
2023-02-08T04:22:52.237Z,14.25
2023-02-08T04:25:19.015Z,12.48
2023-02-08T04:27:43.456Z,10.02
2023-02-08T04:30:08.351Z,7.13
2023-02-08T04:32:32.759Z,8.95
2023-02-08T04:34:57.204Z,10.57
2023-02-08T04:37:21.541Z,10.35
2023-02-08T04:39:46.000Z,10.80
2023-02-08T04:42:11.901Z,10.77
2023-02-08T04:44:36.462Z,11.00
2023-02-08T04:47:01.152Z,10.60
2023-02-08T04:49:25.691Z,9.80
2023-02-08T04:51:50.024Z,6.40
2023-02-08T04:54:14.495Z,10.48
2023-02-08T04:56:39.023Z,7.75
2023-02-08T04:59:05.375Z,8.82
2023-02-08T05:01:29.720Z,7.68
2023-02-08T05:03:54.081Z,9.15
2023-02-08T05:06:21.418Z,8.07
2023-02-08T05:08:45.930Z,10.55
2023-02-08T05:11:10.237Z,10.60
2023-02-08T05:13:34.757Z,12.35
2023-02-08T05:16:00.708Z,10.20
2023-02-08T05:18:25.183Z,10.35
2023-02-08T05:20:56.258Z,8.07
2023-02-08T05:23:20.695Z,8.85
2023-02-08T05:25:45.190Z,10.05
2023-02-08T05:28:09.701Z,11.13
2023-02-08T05:30:34.065Z,7.50
2023-02-08T05:32:59.889Z,8.75
2023-02-08T05:35:24.230Z,9.00
2023-02-08T05:37:48.829Z,7.32
2023-02-08T05:40:13.699Z,8.18
2023-02-08T05:42:38.215Z,7.30
2023-02-08T05:45:02.910Z,7.85
2023-02-08T05:47:27.644Z,7.18
2023-02-08T05:49:53.453Z,7.53
2023-02-08T05:52:17.867Z,6.88
2023-02-08T05:54:42.504Z,5.65
2023-02-08T05:57:07.473Z,7.10
2023-02-08T05:59:31.984Z,8.18
2023-02-08T06:01:56.349Z,9.35
2023-02-08T06:04:21.185Z,8.63
2023-02-08T06:06:47.150Z,7.65
2023-02-08T06:09:11.584Z,5.10
2023-02-08T06:11:36.704Z,8.43
2023-02-08T06:14:01.263Z,9.07
2023-02-08T06:16:25.810Z,7.90
2023-02-08T06:18:50.548Z,8.85
2023-02-08T06:21:15.036Z,9.60
2023-02-08T06:23:41.393Z,10.57
2023-02-08T06:26:06.595Z,11.15
2023-02-08T06:28:31.282Z,9.98
2023-02-08T06:30:55.749Z,11.38
2023-02-08T06:33:20.876Z,12.10
2023-02-08T06:35:47.017Z,10.43
2023-02-08T06:38:11.815Z,10.13
2023-02-08T06:40:37.750Z,8.48
2023-02-08T06:43:02.514Z,9.73
2023-02-08T06:45:27.047Z,9.05
2023-02-08T06:47:51.486Z,7.85
2023-02-08T06:50:18.580Z,9.07
2023-02-08T06:52:43.087Z,9.15
2023-02-08T06:55:08.332Z,9.45
2023-02-08T06:57:34.315Z,10.75
2023-02-08T06:59:58.829Z,8.88
2023-02-08T07:02:24.232Z,8.98
2023-02-08T07:04:49.354Z,10.15
2023-02-08T07:07:14.369Z,10.20
2023-02-08T07:09:38.989Z,10.95
2023-02-08T07:12:05.383Z,11.40
2023-02-08T07:14:32.507Z,18.13
2023-02-08T07:16:57.012Z,28.95
2023-02-08T07:19:21.448Z,27.90
2023-02-08T07:21:45.834Z,13.25
2023-02-08T07:24:10.467Z,27.98
2023-02-08T07:26:35.046Z,17.60
2023-02-08T07:29:00.729Z,14.25
2023-02-08T07:31:26.755Z,11.90
2023-02-08T07:33:51.258Z,10.43
2023-02-08T07:36:15.760Z,11.00
2023-02-08T07:38:40.874Z,9.60
2023-02-08T07:41:06.729Z,10.27
2023-02-08T07:43:31.761Z,10.73
2023-02-08T07:45:58.199Z,10.63
2023-02-08T07:48:24.514Z,10.63
2023-02-08T07:50:49.200Z,10.50
2023-02-08T07:53:13.969Z,11.65
2023-02-08T07:55:38.442Z,10.48
2023-02-08T07:58:03.044Z,11.18
2023-02-08T08:00:27.678Z,11.13
2023-02-08T08:02:52.108Z,10.25
2023-02-08T08:05:18.259Z,9.75
2023-02-08T08:07:43.056Z,9.57
2023-02-08T08:10:08.095Z,11.07
2023-02-08T08:12:32.508Z,9.70
2023-02-08T08:14:57.137Z,11.07
2023-02-08T08:17:21.727Z,10.13
2023-02-08T08:19:46.522Z,11.55
2023-02-08T08:22:12.624Z,11.98
2023-02-08T08:24:37.308Z,11.52
2023-02-08T08:27:03.855Z,12.25
2023-02-08T08:29:29.558Z,12.07
2023-02-08T08:31:54.046Z,12.35
2023-02-08T08:34:19.274Z,12.43
2023-02-08T08:36:44.719Z,11.43
2023-02-08T08:39:10.796Z,12.90
2023-02-08T08:41:37.067Z,12.07
2023-02-08T08:44:02.201Z,10.30
2023-02-08T08:46:26.734Z,10.10
2023-02-08T08:48:51.886Z,13.15
2023-02-08T08:51:16.376Z,10.93
2023-02-08T08:53:41.011Z,11.43
2023-02-08T08:56:07.530Z,11.43
2023-02-08T08:58:32.575Z,12.18
2023-02-08T09:00:58.586Z,12.55
2023-02-08T09:03:23.382Z,13.48
2023-02-08T09:05:48.493Z,11.98
2023-02-08T09:08:13.945Z,12.77
2023-02-08T09:10:38.717Z,14.02
2023-02-08T09:13:04.820Z,12.38
2023-02-08T09:15:29.667Z,13.23
2023-02-08T09:17:54.172Z,12.10
2023-02-08T09:20:18.977Z,13.48
2023-02-08T09:23:06.795Z,13.35
2023-02-08T09:25:34.584Z,12.43
2023-02-08T09:27:59.231Z,13.73
2023-02-08T09:30:25.416Z,13.02
2023-02-08T09:32:49.906Z,14.93
2023-02-08T09:35:15.543Z,13.93
2023-02-08T09:37:40.263Z,15.43
2023-02-08T09:40:05.561Z,13.40
2023-02-08T09:42:38.651Z,14.05
2023-02-08T09:45:57.904Z,13.63
2023-02-08T09:48:29.880Z,12.98
2023-02-08T09:50:59.138Z,14.02
2023-02-08T09:53:27.004Z,14.85
2023-02-08T09:55:56.082Z,13.80
2023-02-08T09:58:27.920Z,15.52
2023-02-08T10:00:54.851Z,15.23
2023-02-08T10:03:37.439Z,17.20
2023-02-08T10:06:02.606Z,16.45
2023-02-08T10:08:35.309Z,16.60
2023-02-08T10:11:08.645Z,17.13
2023-02-08T10:13:54.138Z,16.50
2023-02-08T10:16:37.209Z,17.17
2023-02-08T10:19:11.292Z,20.33
2023-02-08T10:21:50.726Z,16.95
2023-02-08T10:24:34.469Z,17.30
2023-02-08T10:27:07.579Z,15.60
2023-02-08T10:29:51.039Z,14.38
2023-02-08T10:36:34.984Z,13.63
2023-02-08T10:39:57.849Z,15.23
2023-02-08T10:42:55.152Z,15.05
2023-02-08T10:47:02.676Z,15.45
2023-02-08T10:50:05.945Z,15.43
2023-02-08T10:53:04.097Z,14.45
2023-02-08T10:55:42.862Z,15.07
2023-02-08T10:59:01.949Z,14.77
2023-02-08T11:10:47.804Z,11.88
2023-02-08T11:14:00.981Z,13.38
2023-02-08T11:17:11.075Z,15.88
2023-02-08T11:19:50.920Z,17.25
2023-02-08T11:22:31.697Z,14.32
2023-02-08T11:25:49.905Z,13.85
2023-02-08T11:28:33.131Z,12.63
2023-02-08T11:31:19.949Z,12.52
2023-02-08T11:34:06.224Z,15.43
2023-02-08T11:36:51.853Z,13.05
2023-02-08T11:42:42.496Z,12.60
2023-02-08T11:45:43.760Z,12.85
2023-02-08T11:48:28.195Z,12.63
2023-02-08T11:51:29.759Z,11.63
2023-02-08T11:54:03.094Z,12.32
2023-02-08T11:56:54.321Z,13.63
2023-02-08T11:59:38.921Z,13.43
2023-02-08T12:02:43.262Z,13.07
2023-02-08T12:08:17.872Z,12.70
2023-02-08T12:11:05.044Z,12.88
2023-02-08T12:13:42.403Z,14.38
2023-02-08T12:16:24.005Z,13.82
2023-02-08T12:19:26.995Z,13.15
2023-02-08T12:22:00.405Z,13.15
2023-02-08T12:24:32.657Z,14.07
2023-02-08T12:27:08.907Z,12.95
2023-02-08T12:29:48.476Z,12.00
2023-02-08T12:32:32.885Z,12.57
2023-02-08T12:35:20.238Z,13.80
2023-02-08T12:38:13.022Z,13.50
2023-02-08T12:40:54.068Z,13.68
2023-02-08T12:43:30.214Z,13.10
2023-02-08T12:46:23.635Z,14.18
2023-02-08T12:49:09.826Z,13.13
2023-02-08T12:51:42.591Z,12.23
2023-02-08T12:54:12.336Z,15.63
2023-02-08T12:56:40.837Z,12.30
2023-02-08T12:59:13.624Z,12.48
2023-02-08T13:01:44.501Z,11.77
2023-02-08T13:04:15.101Z,12.52
2023-02-08T13:06:43.268Z,10.50
2023-02-08T13:09:16.314Z,8.80
2023-02-08T13:11:46.244Z,11.82
2023-02-08T13:16:43.505Z,10.77
2023-02-08T13:19:25.364Z,10.93
2023-02-08T13:21:51.783Z,11.90
2023-02-08T13:24:31.851Z,11.18
2023-02-08T13:26:56.903Z,10.73
2023-02-08T13:29:23.749Z,9.52
2023-02-08T13:31:51.897Z,10.27
2023-02-08T13:34:24.936Z,9.70
2023-02-08T13:36:55.787Z,9.05
2023-02-08T13:39:37.137Z,10.30
2023-02-08T13:42:03.022Z,11.68
2023-02-08T13:44:32.083Z,10.93
2023-02-08T13:46:56.903Z,7.90
2023-02-08T13:49:45.890Z,8.35
2023-02-08T13:52:11.157Z,7.68
2023-02-08T13:54:35.535Z,10.18
2023-02-08T13:57:00.326Z,8.23
2023-02-08T13:59:36.876Z,10.98
2023-02-08T14:02:26.935Z,12.35
2023-02-08T14:04:56.014Z,6.97
2023-02-08T14:07:38.731Z,10.52
2023-02-08T14:10:27.816Z,11.05
2023-02-08T14:13:01.041Z,9.43
2023-02-08T14:15:39.151Z,7.13
2023-02-08T14:18:04.550Z,6.38
2023-02-08T14:20:36.297Z,7.07
2023-02-08T14:23:05.722Z,8.43
2023-02-08T14:25:40.303Z,6.53
2023-02-08T14:28:05.502Z,9.10
2023-02-08T14:30:32.737Z,9.60
2023-02-08T14:33:16.403Z,7.47
2023-02-08T14:35:51.276Z,7.97
2023-02-08T14:38:51.480Z,6.97
2023-02-08T14:41:50.432Z,7.15
2023-02-08T14:44:54.444Z,8.77
2023-02-08T14:47:57.247Z,7.63
2023-02-08T14:50:26.419Z,7.20
2023-02-08T14:53:00.110Z,8.13
2023-02-08T14:55:28.701Z,8.55
2023-02-08T14:57:56.189Z,8.23
2023-02-08T15:00:23.951Z,8.75
2023-02-08T15:02:50.118Z,9.82
2023-02-08T15:05:23.190Z,9.25
2023-02-08T15:07:52.442Z,8.77
2023-02-08T15:10:20.725Z,8.77
2023-02-08T15:12:48.161Z,8.68
2023-02-08T15:15:25.928Z,8.60
2023-02-08T15:17:55.749Z,8.35
2023-02-08T15:22:50.030Z,8.80
2023-02-08T15:25:30.636Z,9.05
2023-02-08T15:28:00.545Z,10.55
2023-02-08T15:30:33.013Z,9.65
2023-02-08T15:32:57.793Z,8.05
2023-02-08T15:35:24.283Z,9.23
2023-02-08T15:37:49.286Z,10.95
2023-02-08T15:40:24.300Z,11.45
2023-02-08T15:42:48.702Z,10.25
2023-02-08T15:45:25.244Z,11.75
2023-02-08T15:47:50.687Z,12.60
2023-02-08T15:50:19.358Z,11.02
2023-02-08T15:52:44.683Z,10.48
2023-02-08T15:55:10.455Z,11.18
2023-02-08T15:57:40.627Z,12.32
2023-02-08T16:00:08.519Z,11.70
2023-02-08T16:02:36.222Z,11.32
2023-02-08T16:05:02.685Z,9.85
2023-02-08T16:07:32.496Z,10.63
2023-02-08T16:09:58.547Z,10.02
2023-02-08T16:12:25.148Z,11.57
2023-02-08T16:14:52.828Z,11.80
2023-02-08T16:17:40.294Z,11.82
2023-02-08T16:20:22.349Z,11.98
2023-02-08T16:22:57.274Z,11.60
2023-02-08T16:25:34.458Z,13.38
2023-02-08T16:27:59.222Z,11.68
2023-02-08T16:30:24.862Z,12.20
2023-02-08T16:32:51.460Z,10.57
2023-02-08T16:35:21.705Z,12.27
2023-02-08T16:37:46.377Z,10.90
2023-02-08T16:40:49.141Z,10.30
2023-02-08T16:43:18.554Z,10.35
2023-02-08T16:45:43.101Z,12.82
2023-02-08T16:48:31.564Z,12.23
2023-02-08T16:50:56.180Z,13.00
2023-02-08T16:53:21.733Z,12.55
2023-02-08T16:55:48.830Z,11.43
2023-02-08T16:58:16.394Z,13.38
2023-02-08T17:00:41.507Z,12.85
2023-02-08T17:03:06.243Z,9.25
2023-02-08T17:05:36.460Z,12.00
2023-02-08T17:08:01.416Z,13.88
2023-02-08T17:10:29.056Z,13.98
2023-02-08T17:13:03.835Z,12.52
2023-02-08T17:15:37.769Z,15.60
2023-02-08T17:18:02.251Z,14.73
2023-02-08T17:20:33.438Z,15.27
2023-02-08T17:23:01.532Z,14.13
2023-02-08T17:25:29.076Z,16.38
2023-02-08T17:27:55.725Z,15.90
2023-02-08T17:30:23.862Z,16.63
2023-02-08T17:32:56.279Z,15.68
2023-02-08T17:35:21.265Z,17.33
2023-02-08T17:37:46.861Z,16.92
2023-02-08T17:40:13.579Z,13.57
2023-02-08T17:42:38.126Z,16.02
2023-02-08T17:45:03.933Z,14.57
2023-02-08T17:47:28.402Z,18.02
2023-02-08T17:49:52.938Z,14.20
2023-02-08T17:52:17.504Z,15.32
2023-02-08T17:54:42.387Z,15.57
2023-02-08T17:57:08.972Z,15.18
2023-02-08T17:59:33.500Z,15.02
2023-02-08T18:01:57.915Z,14.55
2023-02-08T18:04:22.387Z,15.52
2023-02-08T18:06:47.144Z,14.75
2023-02-08T18:09:11.588Z,17.90
2023-02-08T18:11:36.071Z,19.65
2023-02-08T18:14:02.007Z,18.40
2023-02-08T18:16:28.219Z,21.95
2023-02-08T18:18:52.800Z,16.88
2023-02-08T18:21:19.170Z,23.38
2023-02-08T18:23:44.712Z,23.00
2023-02-08T18:26:12.925Z,17.17
2023-02-08T18:28:37.895Z,15.30
2023-02-08T18:31:05.483Z,15.20
2023-02-08T18:33:30.012Z,14.48
2023-02-08T18:35:54.487Z,14.55
2023-02-08T18:38:19.262Z,14.10
2023-02-08T18:40:43.661Z,16.45
2023-02-08T18:43:08.091Z,14.25
2023-02-08T18:45:32.709Z,15.15
2023-02-08T18:47:59.723Z,15.63
2023-02-08T18:50:24.192Z,15.95
2023-02-08T18:52:48.628Z,16.02
2023-02-08T18:55:13.423Z,15.32
2023-02-08T18:57:40.976Z,15.85
2023-02-08T19:00:06.313Z,13.48
2023-02-08T19:02:30.948Z,14.55
2023-02-08T19:04:56.897Z,13.55
2023-02-08T19:07:21.301Z,13.43
2023-02-08T19:09:46.393Z,15.15
2023-02-08T19:12:15.428Z,13.77
2023-02-08T19:14:40.233Z,15.23
2023-02-08T19:17:04.705Z,15.82
2023-02-08T19:19:29.654Z,17.85
2023-02-08T19:21:56.243Z,15.98
2023-02-08T19:24:21.221Z,15.48
2023-02-08T19:26:45.701Z,14.63
2023-02-08T19:29:13.734Z,14.85
2023-02-08T19:31:39.247Z,15.25
2023-02-08T19:34:05.219Z,14.98
2023-02-08T19:36:31.410Z,14.82
2023-02-08T19:38:58.983Z,16.33
2023-02-08T19:41:25.755Z,15.85
2023-02-08T19:43:50.740Z,16.05
2023-02-08T19:46:19.503Z,17.38
2023-02-08T19:48:44.592Z,16.80
2023-02-08T19:51:09.020Z,17.77
2023-02-08T19:53:34.113Z,15.75
2023-02-08T19:56:01.839Z,16.67
2023-02-08T19:58:27.631Z,15.68
2023-02-08T20:00:52.576Z,16.98
2023-02-08T20:03:22.040Z,15.93
2023-02-08T20:05:47.709Z,16.60
2023-02-08T20:08:12.243Z,15.98
2023-02-08T20:10:39.249Z,15.32
2023-02-08T20:13:05.152Z,16.25
2023-02-08T20:15:29.885Z,16.45
2023-02-08T20:17:54.456Z,15.68
2023-02-08T20:20:19.843Z,15.57
2023-02-08T20:22:44.294Z,16.35
2023-02-08T20:25:09.489Z,15.38
2023-02-08T20:27:33.938Z,17.30
2023-02-08T20:30:01.158Z,14.75
2023-02-08T20:32:25.566Z,15.57
2023-02-08T20:34:59.005Z,14.82
2023-02-08T20:37:24.397Z,15.60
2023-02-08T20:39:48.769Z,16.02
2023-02-08T20:42:14.065Z,16.45
2023-02-08T20:44:38.702Z,16.60
2023-02-08T20:47:23.387Z,15.15
2023-02-08T20:49:48.111Z,16.65
2023-02-08T20:52:13.214Z,15.57
2023-02-08T20:54:39.192Z,15.52
2023-02-08T20:57:03.801Z,18.40
2023-02-08T20:59:28.380Z,15.63
2023-02-08T21:01:52.867Z,16.33
2023-02-08T21:04:20.419Z,15.90
2023-02-08T21:06:46.347Z,17.02
2023-02-08T21:09:14.159Z,15.57
2023-02-08T21:11:39.407Z,15.65
2023-02-08T21:14:05.187Z,16.25
2023-02-08T21:16:32.016Z,17.95
2023-02-08T21:18:57.263Z,15.88
2023-02-08T21:21:23.351Z,17.73
2023-02-08T21:23:48.633Z,16.98
2023-02-08T21:26:17.969Z,18.48
2023-02-08T21:28:43.921Z,16.40
2023-02-08T21:31:12.124Z,15.93
2023-02-08T21:33:36.947Z,16.75
2023-02-08T21:36:03.221Z,14.65
2023-02-08T21:38:29.593Z,16.23
2023-02-08T21:40:54.199Z,14.48
2023-02-08T21:43:18.853Z,15.55
2023-02-08T21:45:43.484Z,15.48
2023-02-08T21:48:08.244Z,15.43
2023-02-08T21:50:52.103Z,15.73
2023-02-08T21:53:34.900Z,16.48
2023-02-08T21:56:00.968Z,15.90
2023-02-08T21:58:25.788Z,14.52
2023-02-08T22:00:50.480Z,16.27
2023-02-08T22:03:15.043Z,15.90
2023-02-08T22:05:39.784Z,15.07
2023-02-08T22:08:04.830Z,16.60
2023-02-08T22:10:31.150Z,16.48
2023-02-08T22:12:57.812Z,16.38
2023-02-08T22:15:24.324Z,16.30
2023-02-08T22:17:49.626Z,15.73
2023-02-08T22:20:15.677Z,15.40
2023-02-08T22:22:40.620Z,18.35
2023-02-08T22:25:05.249Z,15.85
2023-02-08T22:27:30.150Z,16.63
2023-02-08T22:29:56.866Z,17.02
2023-02-08T22:32:21.741Z,16.38
2023-02-08T22:34:47.707Z,18.48
2023-02-08T22:37:12.378Z,18.20
2023-02-08T22:39:36.989Z,18.63
2023-02-08T22:42:01.921Z,28.45
2023-02-08T22:44:26.990Z,21.17
2023-02-08T22:46:53.329Z,20.05
2023-02-08T22:49:17.821Z,20.02
2023-02-08T22:51:42.435Z,17.98
2023-02-08T22:54:07.363Z,19.48
2023-02-08T22:56:31.902Z,18.15
2023-02-08T22:58:56.604Z,15.82
2023-02-08T23:01:21.166Z,17.30
2023-02-08T23:03:47.326Z,16.27
2023-02-08T23:06:16.418Z,15.63
2023-02-08T23:08:40.984Z,16.37
2023-02-08T23:11:07.841Z,16.40
2023-02-08T23:13:33.191Z,18.13
2023-02-08T23:15:58.127Z,17.40
2023-02-08T23:18:23.533Z,16.80
2023-02-08T23:20:50.138Z,15.88
2023-02-08T23:23:14.662Z,17.23
2023-02-08T23:25:40.614Z,17.08
2023-02-08T23:28:05.244Z,16.00
2023-02-08T23:30:29.867Z,15.77
2023-02-08T23:32:54.689Z,16.48
2023-02-08T23:35:19.373Z,16.42
2023-02-08T23:37:45.333Z,16.05
2023-02-08T23:40:11.757Z,17.15
2023-02-08T23:42:37.375Z,16.15
2023-02-08T23:45:03.029Z,16.60
2023-02-08T23:47:29.830Z,14.65
2023-02-08T23:49:55.157Z,13.00
2023-02-08T23:52:20.364Z,14.52
2023-02-08T23:54:46.426Z,16.88
2023-02-08T23:57:11.125Z,13.20
2023-02-08T23:59:36.018Z,11.68
